Time;durP1;ratioP1;P1;durP2;ratioP2;P2;SDS_P1;SDS_P2;PMS_P1;PMS_P2;Temp;Humidity;BMP_temperature;BMP_pressure;BME280_temperature;BME280_humidity;BME280_pressure;Samples;Min_cycle;Max_cycle;Signal;HPM_P1;HPM_P2
2023/05/14 00:01:56;;;;;;;7.65;6.95;;;;;;;;;;5083306;28;20250;-70
2023/05/14 00:04:22;;;;;;;7.50;6.78;;;;;;;;;;5083286;28;20235;-70
2023/05/14 00:06:49;;;;;;;7.57;6.88;;;;;;;;;;5083512;28;20196;-70
2023/05/14 00:09:16;;;;;;;7.30;6.68;;;;;;;;;;5083506;28;20364;-70
2023/05/14 00:11:43;;;;;;;7.10;6.50;;;;;;;;;;5083425;28;20196;-70
2023/05/14 00:14:09;;;;;;;8.52;6.80;;;;;;;;;;5083336;28;20250;-70
2023/05/14 00:16:35;;;;;;;7.65;6.88;;;;;;;;;;5083163;28;20204;-70
2023/05/14 00:19:01;;;;;;;9.80;7.28;;;;;;;;;;5083070;28;20212;-70
2023/05/14 00:21:28;;;;;;;7.40;6.75;;;;;;;;;;5083066;28;20201;-70
2023/05/14 00:23:54;;;;;;;8.43;7.13;;;;;;;;;;5083223;28;20246;-70
2023/05/14 00:26:21;;;;;;;8.18;7.35;;;;;;;;;;5083086;28;20595;-70
2023/05/14 00:28:48;;;;;;;8.02;7.03;;;;;;;;;;5082959;28;20212;-70
2023/05/14 00:31:14;;;;;;;7.70;7.00;;;;;;;;;;5082789;28;20220;-70
2023/05/14 00:33:41;;;;;;;7.78;7.18;;;;;;;;;;5082894;28;20204;-70
2023/05/14 00:36:07;;;;;;;7.10;6.60;;;;;;;;;;5083020;28;20267;-70
2023/05/14 00:38:33;;;;;;;8.23;7.50;;;;;;;;;;5082828;28;20540;-70
2023/05/14 00:41:00;;;;;;;7.57;6.85;;;;;;;;;;5082627;28;20200;-70
2023/05/14 00:43:27;;;;;;;8.43;7.13;;;;;;;;;;5082665;28;20196;-70
2023/05/14 00:45:54;;;;;;;7.18;6.53;;;;;;;;;;5082614;28;20200;-70
2023/05/14 00:48:21;;;;;;;6.90;6.40;;;;;;;;;;5082659;28;20192;-70
2023/05/14 00:50:49;;;;;;;6.80;6.30;;;;;;;;;;5082562;28;20549;-70
2023/05/14 00:53:15;;;;;;;6.78;6.28;;;;;;;;;;5082816;28;20207;-71
2023/05/14 00:55:42;;;;;;;7.70;7.10;;;;;;;;;;5082564;28;20243;-71
2023/05/14 00:58:09;;;;;;;9.10;7.05;;;;;;;;;;5082425;28;20279;-71
2023/05/14 01:00:37;;;;;;;7.85;7.25;;;;;;;;;;5082095;28;20188;-71
2023/05/14 01:03:06;;;;;;;8.27;7.35;;;;;;;;;;5082627;28;20249;-71
2023/05/14 01:05:36;;;;;;;7.32;6.53;;;;;;;;;;5082569;28;20223;-71
2023/05/14 01:08:06;;;;;;;9.63;7.80;;;;;;;;;;5082117;28;20506;-71
2023/05/14 01:10:37;;;;;;;7.97;7.18;;;;;;;;;;5082233;28;20197;-71
2023/05/14 01:13:07;;;;;;;10.85;6.95;;;;;;;;;;5082365;28;20200;-71
2023/05/14 01:15:34;;;;;;;7.80;7.00;;;;;;;;;;5082736;28;20243;-70
2023/05/14 01:18:04;;;;;;;7.18;6.55;;;;;;;;;;5082077;28;20413;-70
2023/05/14 01:20:30;;;;;;;7.15;6.47;;;;;;;;;;5081769;28;20442;-70
2023/05/14 01:22:58;;;;;;;8.23;7.10;;;;;;;;;;5082603;28;20267;-70
2023/05/14 01:25:24;;;;;;;7.47;6.55;;;;;;;;;;5082194;28;20205;-70
2023/05/14 01:27:54;;;;;;;7.68;6.40;;;;;;;;;;5082161;28;20270;-70
2023/05/14 01:30:23;;;;;;;7.43;6.68;;;;;;;;;;5082307;28;20434;-70
2023/05/14 01:32:53;;;;;;;7.90;7.20;;;;;;;;;;5082158;28;20422;-70
2023/05/14 01:35:20;;;;;;;10.88;7.15;;;;;;;;;;5081798;28;20234;-70
2023/05/14 01:37:47;;;;;;;6.85;6.35;;;;;;;;;;5082007;28;20266;-70
2023/05/14 01:40:14;;;;;;;7.50;6.75;;;;;;;;;;5081949;28;20200;-70
2023/05/14 01:42:41;;;;;;;8.95;6.43;;;;;;;;;;5081846;28;20200;-70
2023/05/14 01:45:08;;;;;;;7.25;6.72;;;;;;;;;;5081707;28;20196;-70
2023/05/14 01:47:34;;;;;;;6.63;6.13;;;;;;;;;;5081796;28;20196;-70
2023/05/14 01:50:00;;;;;;;7.97;6.65;;;;;;;;;;5081905;28;20196;-70
2023/05/14 01:52:26;;;;;;;7.30;6.70;;;;;;;;;;5081749;28;20201;-70
2023/05/14 01:54:53;;;;;;;7.28;6.57;;;;;;;;;;5083640;28;20207;-70
2023/05/14 01:57:21;;;;;;;7.15;6.55;;;;;;;;;;5085999;28;20234;-70
2023/05/14 01:59:47;;;;;;;7.85;7.10;;;;;;;;;;5085818;28;20223;-70
2023/05/14 02:02:14;;;;;;;7.90;7.10;;;;;;;;;;5085636;28;20196;-70
2023/05/14 02:04:40;;;;;;;7.95;7.25;;;;;;;;;;5085766;28;20193;-70
2023/05/14 02:07:06;;;;;;;6.60;6.10;;;;;;;;;;5085611;28;20204;-70
2023/05/14 02:09:32;;;;;;;8.20;7.40;;;;;;;;;;5085516;28;20189;-70
2023/05/14 02:11:59;;;;;;;8.00;7.40;;;;;;;;;;5085526;28;20441;-70
2023/05/14 02:14:26;;;;;;;7.38;6.63;;;;;;;;;;5085471;28;20205;-70
2023/05/14 02:16:52;;;;;;;8.13;7.50;;;;;;;;;;5085347;28;20250;-70
2023/05/14 02:19:19;;;;;;;7.65;7.05;;;;;;;;;;5085195;28;20242;-70
2023/05/14 02:21:45;;;;;;;8.45;7.75;;;;;;;;;;5085260;28;20197;-70
2023/05/14 02:24:11;;;;;;;9.65;7.50;;;;;;;;;;5085483;28;20200;-70
2023/05/14 02:26:37;;;;;;;7.97;7.30;;;;;;;;;;5085351;28;20242;-70
2023/05/14 02:29:04;;;;;;;8.43;7.63;;;;;;;;;;5085266;28;20257;-70
2023/05/14 02:31:31;;;;;;;8.60;7.80;;;;;;;;;;5084914;28;20197;-70
2023/05/14 02:33:58;;;;;;;8.40;7.70;;;;;;;;;;5085173;28;20200;-71
2023/05/14 02:36:24;;;;;;;8.55;7.78;;;;;;;;;;5085314;28;20234;-70
2023/05/14 02:38:50;;;;;;;8.73;7.93;;;;;;;;;;5084924;28;20257;-70
2023/05/14 02:41:16;;;;;;;8.05;7.35;;;;;;;;;;5084854;28;20203;-70
2023/05/14 02:43:42;;;;;;;8.02;7.40;;;;;;;;;;5085021;28;20235;-70
2023/05/14 02:46:09;;;;;;;9.95;9.05;;;;;;;;;;5084639;28;20197;-70
2023/05/14 02:48:36;;;;;;;8.43;7.63;;;;;;;;;;5085083;28;20192;-70
2023/05/14 02:51:03;;;;;;;7.90;7.22;;;;;;;;;;5084658;28;20196;-70
2023/05/14 02:53:29;;;;;;;8.43;7.80;;;;;;;;;;5084857;28;20387;-70
2023/05/14 02:55:55;;;;;;;9.00;8.27;;;;;;;;;;5084838;28;20511;-70
2023/05/14 02:58:22;;;;;;;9.32;8.50;;;;;;;;;;5084602;28;20223;-70
2023/05/14 03:00:48;;;;;;;12.05;8.48;;;;;;;;;;5084592;28;20196;-70
2023/05/14 03:03:14;;;;;;;8.68;7.70;;;;;;;;;;5084668;28;20197;-70
2023/05/14 03:05:42;;;;;;;12.60;8.73;;;;;;;;;;5083518;28;20196;-70
2023/05/14 03:08:08;;;;;;;9.23;8.18;;;;;;;;;;5084716;28;20199;-70
2023/05/14 03:10:34;;;;;;;8.48;7.78;;;;;;;;;;5084096;28;20200;-70
2023/05/14 03:13:00;;;;;;;7.88;7.28;;;;;;;;;;5084315;28;20242;-70
2023/05/14 03:15:27;;;;;;;8.77;8.07;;;;;;;;;;5084287;28;20244;-70
2023/05/14 03:17:53;;;;;;;8.25;7.45;;;;;;;;;;5084135;28;20242;-71
2023/05/14 03:20:19;;;;;;;8.85;7.63;;;;;;;;;;5084380;28;20238;-71
2023/05/14 03:22:47;;;;;;;8.25;7.38;;;;;;;;;;5084228;28;20395;-71
2023/05/14 03:25:13;;;;;;;8.27;7.65;;;;;;;;;;5084295;28;20212;-70
2023/05/14 03:27:39;;;;;;;8.48;7.78;;;;;;;;;;5084065;28;20220;-70
2023/05/14 03:30:06;;;;;;;10.85;7.40;;;;;;;;;;5084099;28;20226;-70
2023/05/14 03:32:33;;;;;;;8.75;8.05;;;;;;;;;;5083994;28;20200;-70
2023/05/14 03:34:59;;;;;;;8.65;8.02;;;;;;;;;;5084161;28;20200;-70
2023/05/14 03:37:25;;;;;;;9.23;8.32;;;;;;;;;;5084125;28;20265;-70
2023/05/14 03:39:53;;;;;;;9.43;8.45;;;;;;;;;;5083857;28;20254;-70
2023/05/14 03:42:19;;;;;;;9.55;8.25;;;;;;;;;;5083662;28;20275;-70
2023/05/14 03:44:45;;;;;;;9.70;8.90;;;;;;;;;;5084130;28;20230;-70
2023/05/14 03:47:12;;;;;;;9.40;8.45;;;;;;;;;;5084114;28;20196;-70
2023/05/14 03:49:38;;;;;;;9.13;8.38;;;;;;;;;;5083798;28;20197;-70
2023/05/14 03:52:04;;;;;;;9.57;8.57;;;;;;;;;;5083639;28;20235;-70
2023/05/14 03:54:31;;;;;;;9.50;8.60;;;;;;;;;;5083593;28;20247;-70
2023/05/14 03:56:58;;;;;;;8.73;8.07;;;;;;;;;;5083439;28;20254;-70
2023/05/14 03:59:24;;;;;;;9.20;8.40;;;;;;;;;;5083732;28;20262;-70
2023/05/14 04:01:51;;;;;;;9.95;8.77;;;;;;;;;;5083429;28;20208;-70
2023/05/14 04:04:17;;;;;;;10.25;9.40;;;;;;;;;;5083392;28;20204;-70
2023/05/14 04:06:43;;;;;;;9.80;9.02;;;;;;;;;;5083454;28;20196;-70
2023/05/14 04:09:10;;;;;;;9.25;8.35;;;;;;;;;;5083310;28;20224;-70
2023/05/14 04:11:36;;;;;;;8.93;8.23;;;;;;;;;;5083367;28;20242;-70
2023/05/14 04:14:04;;;;;;;11.60;8.35;;;;;;;;;;5083118;28;20205;-70
2023/05/14 04:16:30;;;;;;;9.90;9.10;;;;;;;;;;5082439;28;20476;-72
2023/05/14 04:18:56;;;;;;;8.68;7.97;;;;;;;;;;5082749;28;20262;-72
2023/05/14 04:21:22;;;;;;;10.45;7.93;;;;;;;;;;5082942;28;20200;-72
2023/05/14 04:23:49;;;;;;;9.50;8.70;;;;;;;;;;5082944;28;20245;-72
2023/05/14 04:26:15;;;;;;;9.60;8.70;;;;;;;;;;5082993;28;20420;-72
2023/05/14 04:28:42;;;;;;;9.60;8.75;;;;;;;;;;5083212;28;20354;-72
2023/05/14 04:31:09;;;;;;;9.77;8.98;;;;;;;;;;5082880;28;20205;-72
2023/05/14 04:33:36;;;;;;;9.70;8.88;;;;;;;;;;5082995;28;20196;-72
2023/05/14 04:36:03;;;;;;;9.18;8.27;;;;;;;;;;5082871;28;20207;-72
2023/05/14 04:38:30;;;;;;;9.32;8.52;;;;;;;;;;5082665;28;20220;-72
2023/05/14 04:40:57;;;;;;;9.68;8.88;;;;;;;;;;5082423;28;20204;-72
2023/05/14 04:43:23;;;;;;;9.68;8.88;;;;;;;;;;5082907;28;20388;-72
2023/05/14 04:45:50;;;;;;;9.57;8.70;;;;;;;;;;5082734;28;20377;-72
2023/05/14 04:48:17;;;;;;;8.77;8.02;;;;;;;;;;5082639;28;20204;-72
2023/05/14 04:50:43;;;;;;;9.93;8.98;;;;;;;;;;5082284;28;20192;-72
2023/05/14 04:53:10;;;;;;;9.55;8.75;;;;;;;;;;5082483;28;20387;-72
2023/05/14 04:55:36;;;;;;;9.15;8.32;;;;;;;;;;5082764;28;20508;-72
2023/05/14 04:58:02;;;;;;;9.10;8.38;;;;;;;;;;5082560;28;20265;-72
2023/05/14 05:00:29;;;;;;;9.25;7.93;;;;;;;;;;5082234;28;20447;-72
2023/05/14 05:02:55;;;;;;;9.13;8.30;;;;;;;;;;5082324;28;20197;-71
2023/05/14 05:05:23;;;;;;;9.63;8.82;;;;;;;;;;5082271;28;20242;-71
2023/05/14 05:07:50;;;;;;;8.98;8.27;;;;;;;;;;5082169;28;20196;-71
2023/05/14 05:10:16;;;;;;;9.38;8.52;;;;;;;;;;5082516;28;20227;-71
2023/05/14 05:12:42;;;;;;;8.32;7.63;;;;;;;;;;5082599;28;20242;-71
2023/05/14 05:15:09;;;;;;;9.25;8.30;;;;;;;;;;5082027;28;20204;-72
2023/05/14 05:17:35;;;;;;;9.10;8.40;;;;;;;;;;5082560;28;20196;-72
2023/05/14 05:20:03;;;;;;;9.70;8.60;;;;;;;;;;5082173;28;20216;-72
2023/05/14 05:22:31;;;;;;;8.32;7.63;;;;;;;;;;5081918;28;20204;-71
2023/05/14 05:24:58;;;;;;;9.60;8.48;;;;;;;;;;5082188;28;20430;-71
2023/05/14 05:27:24;;;;;;;8.63;7.82;;;;;;;;;;5081932;28;20223;-71
2023/05/14 05:29:51;;;;;;;9.60;7.88;;;;;;;;;;5081198;28;20583;-71
2023/05/14 05:32:17;;;;;;;8.77;7.90;;;;;;;;;;5081828;28;20423;-71
2023/05/14 05:34:44;;;;;;;9.35;7.50;;;;;;;;;;5081852;28;20192;-71
2023/05/14 05:37:12;;;;;;;9.30;8.50;;;;;;;;;;5081902;28;20272;-71
2023/05/14 05:39:40;;;;;;;8.77;7.97;;;;;;;;;;5081977;28;20562;-71
2023/05/14 05:42:07;;;;;;;8.63;7.90;;;;;;;;;;5081748;28;20196;-71
2023/05/14 05:44:33;;;;;;;8.85;7.80;;;;;;;;;;5081919;28;20196;-71
2023/05/14 05:46:59;;;;;;;10.57;8.23;;;;;;;;;;5081978;28;20196;-71
2023/05/14 05:49:25;;;;;;;9.27;8.32;;;;;;;;;;5081895;28;20192;-71
2023/05/14 05:51:52;;;;;;;8.95;7.72;;;;;;;;;;5082220;28;20267;-72
2023/05/14 05:54:18;;;;;;;9.45;8.50;;;;;;;;;;5081967;28;20201;-71
2023/05/14 05:56:46;;;;;;;9.10;8.15;;;;;;;;;;5081968;28;20208;-71
2023/05/14 05:59:12;;;;;;;10.23;8.35;;;;;;;;;;5081187;28;20250;-71
2023/05/14 06:01:39;;;;;;;8.48;7.57;;;;;;;;;;5081386;28;20196;-71
2023/05/14 06:04:05;;;;;;;9.45;8.55;;;;;;;;;;5081579;28;20242;-71
2023/05/14 06:06:32;;;;;;;8.48;7.75;;;;;;;;;;5082114;28;20204;-71
2023/05/14 06:09:00;;;;;;;9.30;8.05;;;;;;;;;;5081992;28;20196;-71
2023/05/14 06:11:26;;;;;;;8.65;7.93;;;;;;;;;;5081980;28;20264;-71
2023/05/14 06:13:54;;;;;;;8.70;7.82;;;;;;;;;;5081949;28;20233;-71
2023/05/14 06:16:21;;;;;;;8.35;7.63;;;;;;;;;;5081927;28;20196;-71
2023/05/14 06:18:47;;;;;;;9.68;8.10;;;;;;;;;;5082108;28;20200;-71
2023/05/14 06:21:13;;;;;;;9.73;8.88;;;;;;;;;;5081954;28;20235;-71
2023/05/14 06:23:40;;;;;;;10.13;9.18;;;;;;;;;;5081969;28;20380;-71
2023/05/14 06:26:06;;;;;;;9.50;8.70;;;;;;;;;;5081805;28;20481;-71
2023/05/14 06:28:33;;;;;;;9.98;9.07;;;;;;;;;;5081574;28;20482;-71
2023/05/14 06:31:01;;;;;;;10.68;9.73;;;;;;;;;;5081413;28;20193;-71
2023/05/14 06:33:29;;;;;;;10.40;9.30;;;;;;;;;;5081572;28;20204;-71
2023/05/14 06:35:56;;;;;;;9.98;9.13;;;;;;;;;;5081764;28;20496;-71
2023/05/14 06:38:22;;;;;;;10.13;9.13;;;;;;;;;;5081683;28;20258;-71
2023/05/14 06:40:48;;;;;;;9.85;9.02;;;;;;;;;;5082827;28;20446;-71
2023/05/14 06:43:14;;;;;;;10.85;9.80;;;;;;;;;;5085186;28;20431;-71
2023/05/14 06:45:41;;;;;;;9.93;9.13;;;;;;;;;;5085019;28;20504;-71
2023/05/14 06:48:08;;;;;;;10.10;9.20;;;;;;;;;;5085067;28;20196;-72
2023/05/14 06:50:35;;;;;;;10.80;9.68;;;;;;;;;;5085060;28;20220;-71
2023/05/14 06:53:01;;;;;;;9.73;8.93;;;;;;;;;;5085133;28;20250;-71
2023/05/14 06:55:27;;;;;;;9.45;8.65;;;;;;;;;;5084952;28;20242;-71
2023/05/14 06:57:54;;;;;;;9.95;9.15;;;;;;;;;;5084865;28;20196;-71
2023/05/14 07:00:20;;;;;;;10.60;9.60;;;;;;;;;;5084723;28;20246;-71
2023/05/14 07:02:47;;;;;;;10.27;9.20;;;;;;;;;;5084816;28;20234;-68
2023/05/14 07:05:15;;;;;;;9.38;8.52;;;;;;;;;;5076903;28;20640;-62
2023/05/14 07:07:41;;;;;;;10.05;9.20;;;;;;;;;;5065634;28;20341;-60
2023/05/14 07:10:08;;;;;;;11.23;9.07;;;;;;;;;;5076960;28;20242;-61
2023/05/14 07:12:35;;;;;;;9.73;8.75;;;;;;;;;;5076834;28;20250;-61
2023/05/14 07:15:01;;;;;;;9.68;8.77;;;;;;;;;;5077234;28;20228;-61
2023/05/14 07:17:27;;;;;;;10.45;8.88;;;;;;;;;;5076982;28;20212;-61
2023/05/14 07:19:54;;;;;;;10.18;9.32;;;;;;;;;;5076695;28;20220;-59
2023/05/14 07:22:22;;;;;;;10.02;9.13;;;;;;;;;;5077017;28;20209;-61
2023/05/14 07:24:49;;;;;;;10.98;9.30;;;;;;;;;;5076524;28;20701;-62
2023/05/14 07:27:15;;;;;;;10.05;9.15;;;;;;;;;;5076269;28;20311;-62
2023/05/14 07:29:42;;;;;;;12.52;9.85;;;;;;;;;;5076233;28;20205;-61
2023/05/14 07:32:08;;;;;;;10.60;9.25;;;;;;;;;;5070622;28;20251;-61
2023/05/14 07:34:34;;;;;;;10.45;9.45;;;;;;;;;;5069642;28;20208;-62
2023/05/14 07:37:00;;;;;;;10.52;9.45;;;;;;;;;;5081616;28;20228;-62
2023/05/14 07:39:28;;;;;;;10.40;9.50;;;;;;;;;;5080874;28;20249;-62
2023/05/14 07:41:54;;;;;;;10.05;9.15;;;;;;;;;;5070565;28;20235;-62
2023/05/14 07:44:21;;;;;;;12.05;9.88;;;;;;;;;;5060681;28;20205;-62
2023/05/14 07:46:47;;;;;;;11.73;9.25;;;;;;;;;;5069979;28;20414;-62
2023/05/14 07:49:13;;;;;;;10.77;9.70;;;;;;;;;;5081076;28;20208;-62
2023/05/14 07:51:40;;;;;;;9.77;8.98;;;;;;;;;;5079937;28;20518;-62
2023/05/14 07:54:06;;;;;;;10.20;9.25;;;;;;;;;;5080646;28;20335;-61
2023/05/14 07:56:33;;;;;;;10.90;9.90;;;;;;;;;;5080718;28;20543;-62
2023/05/14 07:59:00;;;;;;;11.18;10.07;;;;;;;;;;5080894;28;20275;-62
2023/05/14 08:01:26;;;;;;;10.57;9.52;;;;;;;;;;5081024;28;20539;-62
2023/05/14 08:03:52;;;;;;;10.68;9.63;;;;;;;;;;5080642;28;20205;-62
2023/05/14 08:06:19;;;;;;;10.43;9.52;;;;;;;;;;5072335;28;20204;-62
2023/05/14 08:08:46;;;;;;;10.45;9.55;;;;;;;;;;5080227;28;20208;-62
2023/05/14 08:11:12;;;;;;;10.55;9.55;;;;;;;;;;5080149;28;20270;-62
2023/05/14 08:13:40;;;;;;;11.23;10.23;;;;;;;;;;5080312;28;20457;-62
2023/05/14 08:16:07;;;;;;;10.65;9.75;;;;;;;;;;5080436;28;20420;-62
2023/05/14 08:18:33;;;;;;;10.63;9.63;;;;;;;;;;5080306;28;20394;-62
2023/05/14 08:21:00;;;;;;;10.93;9.80;;;;;;;;;;5081879;28;20462;-62
2023/05/14 08:23:26;;;;;;;12.02;10.73;;;;;;;;;;5083317;28;20203;-62
2023/05/14 08:25:52;;;;;;;10.93;9.77;;;;;;;;;;5083311;28;20550;-62
2023/05/14 08:28:19;;;;;;;10.85;9.82;;;;;;;;;;5083329;28;20262;-62
2023/05/14 08:30:46;;;;;;;10.52;9.45;;;;;;;;;;5083094;28;20238;-62
2023/05/14 08:33:13;;;;;;;10.50;9.48;;;;;;;;;;5083276;28;20242;-62
2023/05/14 08:35:39;;;;;;;10.50;9.25;;;;;;;;;;5083124;28;20277;-63
2023/05/14 08:38:05;;;;;;;10.27;9.35;;;;;;;;;;5083035;28;20267;-63
2023/05/14 08:40:32;;;;;;;10.05;9.15;;;;;;;;;;5082915;28;20244;-62
2023/05/14 08:42:58;;;;;;;10.43;9.52;;;;;;;;;;5083094;28;20496;-63
2023/05/14 08:45:28;;;;;;;10.73;9.80;;;;;;;;;;5083041;28;20705;-63
2023/05/14 08:47:56;;;;;;;10.30;9.38;;;;;;;;;;5082929;28;20200;-62
2023/05/14 08:50:22;;;;;;;10.60;9.43;;;;;;;;;;5083302;28;20404;-63
2023/05/14 08:52:48;;;;;;;10.70;9.70;;;;;;;;;;5082369;28;20204;-63
2023/05/14 08:55:15;;;;;;;10.57;9.60;;;;;;;;;;5082788;28;20204;-62
2023/05/14 08:57:41;;;;;;;11.77;10.57;;;;;;;;;;5082637;28;20516;-62
2023/05/14 09:00:10;;;;;;;11.30;10.20;;;;;;;;;;5082767;28;20224;-63
2023/05/14 09:02:36;;;;;;;11.48;9.60;;;;;;;;;;5082604;28;20196;-62
2023/05/14 09:05:06;;;;;;;11.95;9.15;;;;;;;;;;5082399;28;20203;-62
2023/05/14 09:07:32;;;;;;;10.10;9.13;;;;;;;;;;5082757;28;20481;-62
2023/05/14 09:09:58;;;;;;;9.98;9.13;;;;;;;;;;5082535;28;20496;-63
2023/05/14 09:12:25;;;;;;;9.98;9.15;;;;;;;;;;5082421;28;20219;-62
2023/05/14 09:14:51;;;;;;;10.75;9.75;;;;;;;;;;5082542;28;20396;-63
2023/05/14 09:17:17;;;;;;;10.20;9.20;;;;;;;;;;5082372;28;20204;-63
2023/05/14 09:19:46;;;;;;;12.10;10.82;;;;;;;;;;5082112;28;20249;-63
2023/05/14 09:22:14;;;;;;;10.27;8.95;;;;;;;;;;5082415;28;20196;-63
2023/05/14 09:24:41;;;;;;;11.30;10.20;;;;;;;;;;5082394;28;20200;-63
2023/05/14 09:27:07;;;;;;;10.93;9.82;;;;;;;;;;5082336;28;20196;-63
2023/05/14 09:29:34;;;;;;;10.70;9.50;;;;;;;;;;5082488;28;20196;-63
2023/05/14 09:32:03;;;;;;;11.13;10.13;;;;;;;;;;5082002;28;20497;-62
2023/05/14 09:34:31;;;;;;;11.85;10.18;;;;;;;;;;5082210;28;20399;-63
2023/05/14 09:36:57;;;;;;;11.23;10.13;;;;;;;;;;5082008;28;20204;-63
2023/05/14 09:39:25;;;;;;;10.35;9.25;;;;;;;;;;5082222;28;20202;-63
2023/05/14 09:41:52;;;;;;;10.40;9.40;;;;;;;;;;5081878;28;20228;-63
2023/05/14 09:44:18;;;;;;;12.80;10.43;;;;;;;;;;5082077;28;20196;-63
2023/05/14 09:46:45;;;;;;;10.90;9.95;;;;;;;;;;5081897;28;20234;-63
2023/05/14 09:49:11;;;;;;;11.75;9.85;;;;;;;;;;5082161;28;20211;-63
2023/05/14 09:51:37;;;;;;;10.85;9.75;;;;;;;;;;5081835;28;20218;-63
2023/05/14 09:54:04;;;;;;;10.95;9.60;;;;;;;;;;5081713;28;20202;-63
2023/05/14 09:56:32;;;;;;;9.85;8.85;;;;;;;;;;5081754;28;20277;-63
2023/05/14 09:58:58;;;;;;;10.07;9.02;;;;;;;;;;5081637;28;20262;-62
2023/05/14 10:01:25;;;;;;;10.43;9.48;;;;;;;;;;5081338;28;20397;-63
2023/05/14 10:03:52;;;;;;;10.88;9.98;;;;;;;;;;5081853;28;20626;-63
2023/05/14 10:06:21;;;;;;;11.15;9.30;;;;;;;;;;5081735;28;20202;-63
2023/05/14 10:08:48;;;;;;;9.65;8.75;;;;;;;;;;5081711;28;20200;-63
2023/05/14 10:11:19;;;;;;;10.05;9.25;;;;;;;;;;5081445;28;20272;-63
2023/05/14 10:13:51;;;;;;;9.35;8.52;;;;;;;;;;5081540;28;20211;-63
2023/05/14 10:16:21;;;;;;;11.70;8.93;;;;;;;;;;5084040;28;20493;-63
2023/05/14 10:18:51;;;;;;;9.88;8.93;;;;;;;;;;5085391;28;20200;-62
2023/05/14 10:21:19;;;;;;;9.70;8.90;;;;;;;;;;5085064;28;20319;-63
2023/05/14 10:23:46;;;;;;;8.88;8.07;;;;;;;;;;5085542;28;20249;-63
2023/05/14 10:26:13;;;;;;;8.38;7.68;;;;;;;;;;5085319;28;20291;-63
2023/05/14 10:28:39;;;;;;;7.97;7.38;;;;;;;;;;5085068;28;20223;-63
2023/05/14 10:31:08;;;;;;;8.10;7.32;;;;;;;;;;5085046;28;20205;-63
2023/05/14 10:33:45;;;;;;;7.60;6.97;;;;;;;;;;5085504;28;20196;-63
2023/05/14 10:36:12;;;;;;;6.60;6.10;;;;;;;;;;5085430;28;20196;-62
2023/05/14 10:38:38;;;;;;;6.60;6.10;;;;;;;;;;5084953;28;20200;-62
2023/05/14 10:41:05;;;;;;;7.43;6.80;;;;;;;;;;5084848;28;20216;-62
2023/05/14 10:43:35;;;;;;;6.38;5.97;;;;;;;;;;5085689;28;20348;-62
2023/05/14 10:46:01;;;;;;;7.22;6.63;;;;;;;;;;5085219;28;20401;-62
2023/05/14 10:48:29;;;;;;;7.28;6.68;;;;;;;;;;5085107;28;20204;-62
2023/05/14 10:50:56;;;;;;;7.40;6.53;;;;;;;;;;5084670;28;20202;-62
2023/05/14 10:53:30;;;;;;;7.57;6.88;;;;;;;;;;5084833;28;20200;-61
2023/05/14 10:55:56;;;;;;;7.65;6.45;;;;;;;;;;5085326;28;20197;-62
2023/05/14 10:58:23;;;;;;;6.63;6.10;;;;;;;;;;5084896;28;20201;-62
2023/05/14 11:00:54;;;;;;;7.65;6.18;;;;;;;;;;5084544;28;20262;-62
2023/05/14 11:03:21;;;;;;;6.03;5.50;;;;;;;;;;5084773;28;20606;-61
2023/05/14 11:05:48;;;;;;;6.28;5.88;;;;;;;;;;5084636;28;20201;-62
2023/05/14 11:08:15;;;;;;;6.38;5.78;;;;;;;;;;5085173;28;20241;-62
2023/05/14 11:10:42;;;;;;;6.25;5.85;;;;;;;;;;5085061;28;20208;-64
2023/05/14 11:13:08;;;;;;;5.88;5.45;;;;;;;;;;5085312;28;20367;-62
2023/05/14 11:15:34;;;;;;;5.78;5.38;;;;;;;;;;5085513;28;20356;-63
2023/05/14 11:18:01;;;;;;;5.88;5.47;;;;;;;;;;5084957;28;20201;-62
2023/05/14 11:20:27;;;;;;;5.57;5.15;;;;;;;;;;5076943;28;20427;-62
2023/05/14 11:22:54;;;;;;;5.57;5.07;;;;;;;;;;5064911;28;20370;-62
2023/05/14 11:25:24;;;;;;;5.53;5.03;;;;;;;;;;5064963;28;20398;-62
2023/05/14 11:27:50;;;;;;;6.00;5.13;;;;;;;;;;5063461;28;20447;-62
2023/05/14 11:30:17;;;;;;;4.20;4.00;;;;;;;;;;5061622;28;20301;-60
2023/05/14 11:32:44;;;;;;;4.60;4.30;;;;;;;;;;5059523;28;20439;-61
2023/05/14 11:35:11;;;;;;;4.32;4.13;;;;;;;;;;5057403;28;20216;-61
2023/05/14 11:37:37;;;;;;;3.67;3.47;;;;;;;;;;5070534;28;20212;-60
2023/05/14 11:40:07;;;;;;;4.30;4.10;;;;;;;;;;5077538;28;20215;-61
2023/05/14 11:42:34;;;;;;;5.38;5.07;;;;;;;;;;5077048;28;20228;-61
2023/05/14 11:45:00;;;;;;;4.93;4.63;;;;;;;;;;5077337;28;20250;-61
2023/05/14 11:47:26;;;;;;;5.45;3.88;;;;;;;;;;5076474;28;20204;-60
2023/05/14 11:49:52;;;;;;;3.58;3.47;;;;;;;;;;5076753;28;20208;-59
2023/05/14 11:52:20;;;;;;;3.70;3.50;;;;;;;;;;5076970;28;20208;-61
2023/05/14 11:54:48;;;;;;;3.25;3.03;;;;;;;;;;5076475;28;20528;-61
2023/05/14 11:57:18;;;;;;;4.07;3.72;;;;;;;;;;5076328;28;20421;-60
2023/05/14 11:59:44;;;;;;;3.28;3.05;;;;;;;;;;5076431;28;20215;-61
2023/05/14 12:02:11;;;;;;;3.90;3.72;;;;;;;;;;5078214;28;20574;-60
2023/05/14 12:04:37;;;;;;;4.38;4.07;;;;;;;;;;5078858;28;20212;-60
2023/05/14 12:07:07;;;;;;;4.30;4.00;;;;;;;;;;5078869;28;20557;-62
2023/05/14 12:09:35;;;;;;;3.97;3.58;;;;;;;;;;5077424;28;20246;-62
2023/05/14 12:12:07;;;;;;;3.75;3.45;;;;;;;;;;5061569;28;20205;-62
2023/05/14 12:14:36;;;;;;;3.92;3.50;;;;;;;;;;5063942;28;20212;-61
2023/05/14 12:17:03;;;;;;;3.72;3.58;;;;;;;;;;5063881;28;20197;-61
2023/05/14 12:19:30;;;;;;;3.55;3.33;;;;;;;;;;5063871;28;20205;-61
2023/05/14 12:21:56;;;;;;;3.83;3.53;;;;;;;;;;5063537;28;20533;-61
2023/05/14 12:24:25;;;;;;;3.67;3.20;;;;;;;;;;5063688;28;20197;-60
2023/05/14 12:26:51;;;;;;;2.97;2.88;;;;;;;;;;5063665;28;20520;-61
2023/05/14 12:29:17;;;;;;;3.50;3.40;;;;;;;;;;5063340;28;20232;-61
2023/05/14 12:31:48;;;;;;;3.70;3.40;;;;;;;;;;5063461;28;20204;-60
2023/05/14 12:34:15;;;;;;;4.70;4.30;;;;;;;;;;5063838;28;20197;-60
2023/05/14 12:36:41;;;;;;;3.17;3.08;;;;;;;;;;5064237;28;20204;-60
2023/05/14 12:39:08;;;;;;;3.40;3.30;;;;;;;;;;5063540;28;20247;-60
2023/05/14 12:41:34;;;;;;;3.78;3.58;;;;;;;;;;5063334;28;20224;-60
2023/05/14 12:44:02;;;;;;;3.75;3.55;;;;;;;;;;5063381;28;20259;-61
2023/05/14 12:46:28;;;;;;;3.35;3.15;;;;;;;;;;5063826;28;20254;-60
2023/05/14 12:48:56;;;;;;;3.42;3.22;;;;;;;;;;5063434;28;20197;-60
2023/05/14 12:51:22;;;;;;;3.90;3.55;;;;;;;;;;5063426;28;20193;-60
2023/05/14 12:53:50;;;;;;;3.78;3.58;;;;;;;;;;5063444;28;20196;-60
2023/05/14 12:56:16;;;;;;;3.70;3.50;;;;;;;;;;5063153;28;20412;-62
2023/05/14 12:58:43;;;;;;;3.60;3.40;;;;;;;;;;5063155;28;20251;-63
2023/05/14 13:01:09;;;;;;;3.90;3.67;;;;;;;;;;5063086;28;20217;-62
2023/05/14 13:03:35;;;;;;;3.60;3.40;;;;;;;;;;5063395;28;20197;-60
2023/05/14 13:06:03;;;;;;;3.75;3.42;;;;;;;;;;5063155;28;20197;-62
2023/05/14 13:08:29;;;;;;;3.75;3.55;;;;;;;;;;5062961;28;20201;-62
2023/05/14 13:10:56;;;;;;;3.50;3.40;;;;;;;;;;5062576;28;20201;-62
2023/05/14 13:13:22;;;;;;;3.88;3.50;;;;;;;;;;5063177;28;20495;-62
2023/05/14 13:15:48;;;;;;;4.43;3.40;;;;;;;;;;5063013;28;20205;-61
2023/05/14 13:18:15;;;;;;;3.38;3.28;;;;;;;;;;5063229;28;20197;-62
2023/05/14 13:20:41;;;;;;;3.33;3.10;;;;;;;;;;5062592;28;20235;-62
2023/05/14 13:23:09;;;;;;;3.85;3.55;;;;;;;;;;5063114;28;20290;-62
2023/05/14 13:25:35;;;;;;;3.38;3.28;;;;;;;;;;5062774;28;20443;-59
2023/05/14 13:28:02;;;;;;;3.33;3.20;;;;;;;;;;5062963;28;20217;-62
2023/05/14 13:30:28;;;;;;;4.00;2.72;;;;;;;;;;5062672;28;20260;-63
2023/05/14 13:32:55;;;;;;;3.10;3.00;;;;;;;;;;5062732;28;20200;-60
2023/05/14 13:35:21;;;;;;;3.30;3.20;;;;;;;;;;5062576;28;20197;-61
2023/05/14 13:37:47;;;;;;;3.03;2.92;;;;;;;;;;5062818;28;20442;-60
2023/05/14 13:40:15;;;;;;;2.83;2.80;;;;;;;;;;5062643;28;20223;-61
2023/05/14 13:42:41;;;;;;;3.30;3.10;;;;;;;;;;5062886;28;20567;-61
2023/05/14 13:45:08;;;;;;;3.30;3.10;;;;;;;;;;5062883;28;20204;-61
2023/05/14 13:47:34;;;;;;;2.60;2.45;;;;;;;;;;5062789;28;20251;-60
2023/05/14 13:50:01;;;;;;;2.70;2.60;;;;;;;;;;5062039;28;20204;-60
2023/05/14 13:52:27;;;;;;;2.80;2.60;;;;;;;;;;5062907;28;20234;-61
2023/05/14 13:54:53;;;;;;;2.70;2.53;;;;;;;;;;5062884;28;20235;-61
2023/05/14 13:57:21;;;;;;;2.78;2.67;;;;;;;;;;5062798;28;20196;-61
2023/05/14 13:59:48;;;;;;;2.70;2.60;;;;;;;;;;5062939;28;20196;-61
2023/05/14 14:02:14;;;;;;;2.50;2.17;;;;;;;;;;5062450;28;20235;-61
2023/05/14 14:04:40;;;;;;;2.60;2.50;;;;;;;;;;5062909;28;20420;-61
2023/05/14 14:07:07;;;;;;;2.83;2.63;;;;;;;;;;5063343;28;20500;-61
2023/05/14 14:09:35;;;;;;;2.40;2.40;;;;;;;;;;5062757;28;20204;-61
2023/05/14 14:12:02;;;;;;;2.30;2.20;;;;;;;;;;5063021;28;20200;-61
2023/05/14 14:14:30;;;;;;;2.00;1.90;;;;;;;;;;5062966;28;20277;-60
2023/05/14 14:16:56;;;;;;;2.50;2.30;;;;;;;;;;5062639;28;20197;-61
2023/05/14 14:19:22;;;;;;;2.33;2.30;;;;;;;;;;5062432;28;20204;-61
2023/05/14 14:21:49;;;;;;;3.80;2.47;;;;;;;;;;5062151;28;20228;-61
2023/05/14 14:24:15;;;;;;;3.10;2.80;;;;;;;;;;5062751;28;20201;-61
2023/05/14 14:26:41;;;;;;;3.72;2.90;;;;;;;;;;5062697;28;20242;-61
2023/05/14 14:29:07;;;;;;;3.13;2.78;;;;;;;;;;5062212;28;20323;-61
2023/05/14 14:31:35;;;;;;;2.45;2.35;;;;;;;;;;5062496;28;20200;-61
2023/05/14 14:34:02;;;;;;;2.65;2.55;;;;;;;;;;5062730;28;20200;-61
2023/05/14 14:36:29;;;;;;;3.10;2.90;;;;;;;;;;5062812;28;20197;-60